Terminal Aerodrome Forecast
Issued by NWS Wilmington, OH

Current Version | Previous Version | Text Only | Print | Product List | Glossary Off
Versions: 1 2 3 4 5 6 7 8 9 10 11 12 13 14 15 16 17 18 19 20

770
FTUS41 KILN 152143 AAA
TAFDAY
TAF AMD
KDAY 152143Z 1522/1618 22015KT 5SM BR VCSH OVC009
     FM152300 23012KT 5SM BR OVC005
     FM160400 27013KT P6SM BKN015=

USA.gov is the U.S. government's official web portal to all federal, state and local government web resources and services.